createdAt,value
2019-02-16T00:00:42.151Z,0.00
2019-02-16T00:01:45.599Z,0.00
2019-02-16T00:02:42.148Z,0.00
2019-02-16T00:03:42.119Z,0.00
2019-02-16T00:04:42.283Z,0.00
2019-02-16T00:05:42.108Z,0.00
2019-02-16T00:06:42.239Z,0.00
2019-02-16T00:07:42.106Z,0.00
2019-02-16T00:08:42.227Z,0.00
2019-02-16T00:09:42.068Z,0.00
2019-02-16T00:10:42.273Z,0.00
2019-02-16T00:11:42.041Z,0.00
2019-02-16T00:12:42.178Z,0.00
2019-02-16T00:13:42.013Z,0.00
2019-02-16T00:14:42.140Z,0.00
2019-02-16T00:15:42.009Z,0.00
2019-02-16T00:16:43.226Z,0.00
2019-02-16T00:17:42.010Z,0.00
2019-02-16T00:18:42.171Z,0.00
2019-02-16T00:19:41.951Z,0.00
2019-02-16T00:20:42.067Z,0.00
2019-02-16T00:21:41.945Z,0.00
2019-02-16T00:22:42.187Z,0.00
2019-02-16T00:23:41.921Z,0.00
2019-02-16T00:24:43.014Z,0.00
2019-02-16T00:25:41.895Z,0.00
2019-02-16T00:26:42.010Z,0.00
2019-02-16T00:27:41.955Z,0.00
2019-02-16T00:28:42.016Z,0.00
2019-02-16T00:29:41.877Z,0.00
2019-02-16T00:30:42.058Z,0.00
2019-02-16T00:31:41.840Z,0.00
2019-02-16T00:32:42.018Z,0.00
2019-02-16T00:33:41.846Z,0.00
2019-02-16T00:34:41.967Z,0.00
2019-02-16T00:35:41.811Z,0.00
2019-02-16T00:36:41.972Z,0.00
2019-02-16T00:37:41.856Z,0.00
2019-02-16T00:38:41.751Z,0.00
2019-02-16T00:39:41.759Z,0.00
2019-02-16T00:40:41.802Z,0.00
2019-02-16T00:41:41.741Z,0.00
2019-02-16T00:42:41.867Z,0.00
2019-02-16T00:43:41.723Z,0.00
2019-02-16T00:44:41.715Z,0.00
2019-02-16T00:45:41.683Z,0.00
2019-02-16T00:46:41.844Z,0.00
2019-02-16T00:47:41.691Z,0.00
2019-02-16T00:48:41.740Z,0.00
2019-02-16T00:49:41.636Z,0.00
2019-02-16T00:50:41.696Z,0.00
2019-02-16T00:51:41.642Z,0.00
2019-02-16T00:52:42.653Z,0.00
2019-02-16T00:53:41.600Z,0.00
2019-02-16T00:54:41.676Z,0.00
2019-02-16T00:55:41.590Z,0.00
2019-02-16T00:56:41.573Z,0.00
2019-02-16T00:57:41.612Z,0.00
2019-02-16T00:58:41.704Z,0.00
2019-02-16T00:59:41.550Z,0.00
2019-02-16T01:00:42.643Z,0.00
2019-02-16T01:01:41.528Z,0.00
2019-02-16T01:02:41.609Z,0.00
2019-02-16T01:03:41.689Z,0.00
2019-02-16T01:04:41.495Z,0.00
2019-02-16T01:05:43.608Z,0.00
2019-02-16T01:06:41.463Z,0.00
2019-02-16T01:07:42.646Z,0.00
2019-02-16T01:08:41.447Z,0.00
2019-02-16T01:09:41.580Z,0.00
2019-02-16T01:10:41.438Z,0.00
2019-02-16T01:11:42.526Z,0.00
2019-02-16T01:12:41.441Z,0.00
2019-02-16T01:13:41.500Z,0.00
2019-02-16T01:14:41.374Z,0.00
2019-02-16T01:15:41.514Z,0.00
2019-02-16T01:16:41.390Z,0.00
2019-02-16T01:17:41.486Z,0.00
2019-02-16T01:18:41.329Z,0.00
2019-02-16T01:19:41.438Z,0.00
2019-02-16T01:20:41.326Z,0.00
2019-02-16T01:21:41.449Z,0.00
2019-02-16T01:22:41.337Z,0.00
2019-02-16T01:23:41.471Z,0.00
2019-02-16T01:24:41.271Z,0.00
2019-02-16T01:25:41.380Z,0.00
2019-02-16T01:26:41.383Z,0.00
2019-02-16T01:27:41.272Z,0.00
2019-02-16T01:28:41.404Z,0.00
2019-02-16T01:29:41.237Z,0.00
2019-02-16T01:30:41.332Z,0.00
2019-02-16T01:31:41.194Z,0.00
2019-02-16T01:32:41.264Z,0.00
2019-02-16T01:33:41.196Z,0.00
2019-02-16T01:34:41.345Z,0.00
2019-02-16T01:35:41.166Z,0.00
2019-02-16T01:36:41.259Z,0.00
2019-02-16T01:37:41.163Z,0.00
2019-02-16T01:38:41.140Z,0.00
2019-02-16T01:39:41.304Z,0.00
2019-02-16T01:40:41.099Z,0.00
2019-02-16T01:41:41.172Z,0.00
2019-02-16T01:42:41.109Z,0.00
2019-02-16T01:43:41.203Z,0.00
2019-02-16T01:44:41.090Z,0.00
2019-02-16T01:45:41.207Z,0.00
2019-02-16T01:46:41.038Z,0.00
2019-02-16T01:47:43.217Z,0.00
2019-02-16T01:48:41.028Z,0.00
2019-02-16T01:49:41.121Z,0.00
2019-02-16T01:50:41.016Z,0.00
2019-02-16T01:51:41.158Z,0.00
2019-02-16T01:52:41.018Z,0.00
2019-02-16T01:53:41.074Z,0.00
2019-02-16T01:54:40.959Z,0.00
2019-02-16T01:55:42.105Z,0.00
2019-02-16T01:56:40.961Z,0.00
2019-02-16T01:57:41.182Z,0.00
2019-02-16T01:58:40.933Z,0.00
2019-02-16T01:59:43.085Z,0.00
2019-02-16T02:00:40.910Z,0.00
2019-02-16T02:01:43.062Z,0.00
2019-02-16T02:02:40.901Z,0.00
2019-02-16T02:03:41.013Z,0.00
2019-02-16T02:04:40.869Z,0.00
2019-02-16T02:05:40.956Z,0.00
2019-02-16T02:06:40.864Z,0.00
2019-02-16T02:07:41.925Z,0.00
2019-02-16T02:08:40.836Z,0.00
2019-02-16T02:09:40.950Z,0.00
2019-02-16T02:10:40.808Z,0.00
2019-02-16T02:11:40.858Z,0.00
2019-02-16T02:12:40.828Z,0.00
2019-02-16T02:13:40.882Z,0.00
2019-02-16T02:14:40.763Z,0.00
2019-02-16T02:15:40.902Z,0.00
2019-02-16T02:16:40.833Z,0.00
2019-02-16T02:17:40.877Z,0.00
2019-02-16T02:18:40.719Z,0.00
2019-02-16T02:19:40.744Z,0.00
2019-02-16T02:20:40.676Z,0.00
2019-02-16T02:21:41.605Z,0.00
2019-02-16T02:22:40.694Z,0.00
2019-02-16T02:23:40.754Z,0.00
2019-02-16T02:24:40.642Z,0.00
2019-02-16T02:25:40.642Z,0.00
2019-02-16T02:26:40.646Z,0.00
2019-02-16T02:27:41.839Z,0.00
2019-02-16T02:28:40.593Z,0.00
2019-02-16T02:29:40.692Z,0.00
2019-02-16T02:30:40.580Z,0.00
2019-02-16T02:31:40.588Z,0.00
2019-02-16T02:32:40.582Z,0.00
2019-02-16T02:33:40.775Z,0.00
2019-02-16T02:34:40.562Z,0.00
2019-02-16T02:35:40.627Z,0.00
2019-02-16T02:36:40.526Z,0.00
2019-02-16T02:37:40.551Z,0.00
2019-02-16T02:38:40.490Z,0.00
2019-02-16T02:39:40.661Z,0.00
2019-02-16T02:40:40.537Z,0.00
2019-02-16T02:41:40.576Z,0.00
2019-02-16T02:42:40.539Z,0.00
2019-02-16T02:43:40.444Z,0.00
2019-02-16T02:44:40.576Z,0.00
2019-02-16T02:45:40.419Z,0.00
2019-02-16T02:46:41.508Z,0.00
2019-02-16T02:47:40.454Z,0.00
2019-02-16T02:48:40.517Z,0.00
2019-02-16T02:49:40.378Z,0.00
2019-02-16T02:50:40.511Z,0.00
2019-02-16T02:51:40.371Z,0.00
2019-02-16T02:52:40.510Z,0.00
2019-02-16T02:53:40.340Z,0.00
2019-02-16T02:54:40.460Z,0.00
2019-02-16T02:55:40.317Z,0.00
2019-02-16T02:56:40.448Z,0.00
2019-02-16T02:57:40.330Z,0.00
2019-02-16T02:58:40.463Z,0.00
2019-02-16T02:59:40.321Z,0.00
2019-02-16T03:00:40.388Z,0.00
2019-02-16T03:01:40.257Z,0.00
2019-02-16T03:02:40.430Z,0.00
2019-02-16T03:03:40.229Z,0.00
2019-02-16T03:04:40.408Z,0.00
2019-02-16T03:05:40.257Z,0.00
2019-02-16T03:06:40.341Z,0.00
2019-02-16T03:07:40.261Z,0.00
2019-02-16T03:08:40.361Z,0.00
2019-02-16T03:09:40.188Z,0.00
2019-02-16T03:10:41.270Z,0.00
2019-02-16T03:11:40.159Z,0.00
2019-02-16T03:12:40.306Z,0.00
2019-02-16T03:13:40.243Z,0.00
2019-02-16T03:14:40.142Z,0.00
2019-02-16T03:15:40.266Z,0.00
2019-02-16T03:16:40.123Z,0.00
2019-02-16T03:17:40.268Z,0.00
2019-02-16T03:18:40.067Z,0.00
2019-02-16T03:19:40.070Z,0.00
2019-02-16T03:20:40.061Z,0.00
2019-02-16T03:21:40.204Z,0.00
2019-02-16T03:22:40.102Z,0.00
2019-02-16T03:23:40.132Z,0.00
2019-02-16T03:24:40.024Z,0.00
2019-02-16T03:25:40.021Z,0.00
2019-02-16T03:26:39.991Z,0.00
2019-02-16T03:27:40.121Z,0.00
2019-02-16T03:28:39.985Z,0.00
2019-02-16T03:29:40.069Z,0.00
2019-02-16T03:30:39.966Z,0.00
2019-02-16T03:31:40.011Z,0.00
2019-02-16T03:32:39.968Z,0.00
2019-02-16T03:33:40.100Z,0.00
2019-02-16T03:34:39.913Z,0.00
2019-02-16T03:35:40.005Z,0.00
2019-02-16T03:36:39.886Z,0.00
2019-02-16T03:37:40.067Z,0.00
2019-02-16T03:38:39.890Z,0.00
2019-02-16T03:39:40.061Z,0.00
2019-02-16T03:40:39.847Z,0.00
2019-02-16T03:41:39.992Z,0.00
2019-02-16T03:42:39.865Z,0.00
2019-02-16T03:43:39.956Z,0.00
2019-02-16T03:44:39.827Z,0.00
2019-02-16T03:45:39.972Z,0.00
2019-02-16T03:46:39.804Z,0.00
2019-02-16T03:47:39.958Z,0.00
2019-02-16T03:48:40.452Z,0.00
2019-02-16T03:49:39.880Z,0.00
2019-02-16T03:50:39.751Z,0.00
2019-02-16T03:51:39.909Z,0.00
2019-02-16T03:52:39.766Z,0.00
2019-02-16T03:53:39.818Z,0.00
2019-02-16T03:54:39.754Z,0.00
2019-02-16T03:55:39.833Z,0.00
2019-02-16T03:56:39.821Z,0.00
2019-02-16T03:57:39.722Z,0.00
2019-02-16T03:58:39.731Z,0.00
2019-02-16T03:59:39.676Z,0.00
2019-02-16T04:00:39.749Z,0.00
2019-02-16T04:01:39.672Z,0.00
2019-02-16T04:02:39.681Z,0.00
2019-02-16T04:03:39.780Z,0.00
2019-02-16T04:04:39.621Z,0.00
2019-02-16T04:05:39.681Z,0.00
2019-02-16T04:06:39.575Z,0.00
2019-02-16T04:07:39.796Z,0.00
2019-02-16T04:08:39.594Z,0.00
2019-02-16T04:09:39.727Z,0.00
2019-02-16T04:10:39.618Z,0.00
2019-02-16T04:11:39.626Z,0.00
2019-02-16T04:12:39.518Z,0.00
2019-02-16T04:13:39.651Z,0.00
2019-02-16T04:14:39.548Z,0.00
2019-02-16T04:15:39.528Z,0.00
2019-02-16T04:16:40.955Z,0.00
2019-02-16T04:17:39.466Z,0.00
2019-02-16T04:18:39.584Z,0.00
2019-02-16T04:19:39.463Z,0.00
2019-02-16T04:20:39.484Z,0.00
2019-02-16T04:21:39.618Z,0.00
2019-02-16T04:22:39.492Z,0.00
2019-02-16T04:23:39.529Z,0.00
2019-02-16T04:24:40.410Z,0.00
2019-02-16T04:25:39.519Z,0.00
2019-02-16T04:26:40.658Z,0.00
2019-02-16T04:27:39.485Z,0.00
2019-02-16T04:28:39.372Z,0.00
2019-02-16T04:29:39.607Z,0.00
2019-02-16T04:30:39.340Z,0.00
2019-02-16T04:31:39.463Z,0.00
2019-02-16T04:32:39.347Z,0.00
2019-02-16T04:33:39.459Z,0.00
2019-02-16T04:34:39.292Z,0.00
2019-02-16T04:35:39.412Z,0.00
2019-02-16T04:36:39.281Z,0.00
2019-02-16T04:37:39.470Z,0.00
2019-02-16T04:38:39.267Z,0.00
2019-02-16T04:39:39.424Z,0.00
2019-02-16T04:40:39.234Z,0.00
2019-02-16T04:41:39.320Z,0.00
2019-02-16T04:42:39.212Z,0.00
2019-02-16T04:43:39.409Z,0.00
2019-02-16T04:44:39.224Z,0.00
2019-02-16T04:45:39.351Z,0.00
2019-02-16T04:46:39.190Z,0.00
2019-02-16T04:47:39.263Z,0.00
2019-02-16T04:48:39.155Z,0.00
2019-02-16T04:49:39.329Z,0.00
2019-02-16T04:50:39.148Z,0.00
2019-02-16T04:51:39.274Z,0.00
2019-02-16T04:52:39.144Z,0.00
2019-02-16T04:53:46.064Z,0.00
2019-02-16T04:54:40.432Z,0.00
2019-02-16T04:55:39.221Z,0.00
2019-02-16T04:56:39.207Z,0.00
2019-02-16T04:57:39.071Z,0.00
2019-02-16T04:58:39.164Z,0.00
2019-02-16T04:59:39.070Z,0.00
2019-02-16T05:00:39.218Z,0.00
2019-02-16T05:01:39.034Z,0.00
2019-02-16T05:02:39.030Z,0.00
2019-02-16T05:03:39.188Z,0.00
2019-02-16T05:04:38.990Z,0.00
2019-02-16T05:05:39.077Z,0.00
2019-02-16T05:06:39.029Z,0.00
2019-02-16T05:07:39.082Z,0.00
2019-02-16T05:08:39.097Z,0.00
2019-02-16T05:09:38.928Z,0.00
2019-02-16T05:10:39.086Z,0.00
2019-02-16T05:11:38.936Z,0.00
2019-02-16T05:12:39.087Z,0.00
2019-02-16T05:13:38.904Z,0.00
2019-02-16T05:14:38.899Z,0.00
2019-02-16T05:15:38.906Z,0.00
2019-02-16T05:16:38.934Z,0.00
2019-02-16T05:17:38.861Z,0.00
2019-02-16T05:18:39.024Z,0.00
2019-02-16T05:19:38.854Z,0.00
2019-02-16T05:20:38.857Z,0.00
2019-02-16T05:21:38.839Z,0.00
2019-02-16T05:22:44.535Z,0.00
2019-02-16T05:23:39.827Z,0.00
2019-02-16T05:24:38.910Z,0.00
2019-02-16T05:25:38.787Z,0.00
2019-02-16T05:26:38.777Z,0.00
2019-02-16T05:27:38.745Z,0.00
2019-02-16T05:28:38.823Z,0.00
2019-02-16T05:29:38.788Z,0.00
2019-02-16T05:30:38.850Z,0.00
2019-02-16T05:31:38.721Z,0.00
2019-02-16T05:32:38.744Z,0.00
2019-02-16T05:33:38.700Z,0.00
2019-02-16T05:34:38.862Z,0.00
2019-02-16T05:35:38.668Z,0.00
2019-02-16T05:36:38.786Z,0.00
2019-02-16T05:37:38.648Z,0.00
2019-02-16T05:38:38.772Z,0.00
2019-02-16T05:39:38.686Z,0.00
2019-02-16T05:40:38.770Z,0.00
2019-02-16T05:41:38.615Z,0.00
2019-02-16T05:42:40.243Z,0.00
2019-02-16T05:43:38.631Z,0.00
2019-02-16T05:44:38.727Z,0.00
2019-02-16T05:45:38.592Z,0.00
2019-02-16T05:46:38.700Z,0.00
2019-02-16T05:47:38.614Z,0.00
2019-02-16T05:48:39.677Z,0.00
2019-02-16T05:49:38.540Z,0.00
2019-02-16T05:50:38.659Z,0.00
2019-02-16T05:51:38.547Z,0.00
2019-02-16T05:52:38.600Z,0.00
2019-02-16T05:53:38.512Z,0.00
2019-02-16T05:54:38.589Z,0.00
2019-02-16T05:55:38.461Z,0.00
2019-02-16T05:56:38.603Z,0.00
2019-02-16T05:57:39.521Z,0.00
2019-02-16T05:58:38.493Z,0.00
2019-02-16T05:59:38.421Z,0.00
2019-02-16T06:00:38.586Z,0.00
2019-02-16T06:01:38.411Z,0.00
2019-02-16T06:02:38.528Z,0.00
2019-02-16T06:03:38.510Z,0.00
2019-02-16T06:04:38.379Z,0.00
2019-02-16T06:05:40.744Z,0.00
2019-02-16T06:06:38.359Z,0.00
2019-02-16T06:07:38.458Z,0.00
2019-02-16T06:08:38.341Z,0.00
2019-02-16T06:09:38.356Z,4.00
2019-02-16T06:10:38.389Z,0.00
2019-02-16T06:11:38.313Z,0.00
2019-02-16T06:12:38.411Z,4.00
2019-02-16T06:13:38.289Z,4.00
2019-02-16T06:14:38.378Z,4.00
2019-02-16T06:15:38.252Z,4.00
2019-02-16T06:16:38.313Z,4.00
2019-02-16T06:17:38.302Z,4.00
2019-02-16T06:18:38.385Z,8.00
2019-02-16T06:19:38.209Z,8.00
2019-02-16T06:20:38.316Z,12.00
2019-02-16T06:21:39.278Z,12.00
2019-02-16T06:22:38.192Z,16.00
2019-02-16T06:23:38.253Z,20.00
2019-02-16T06:24:38.174Z,24.00
2019-02-16T06:25:38.353Z,28.00
2019-02-16T06:26:38.191Z,32.00
2019-02-16T06:27:38.153Z,40.00
2019-02-16T06:28:38.149Z,48.00
2019-02-16T06:29:38.209Z,56.00
2019-02-16T06:30:38.109Z,64.00
2019-02-16T06:31:38.325Z,76.00
2019-02-16T06:32:38.094Z,84.00
2019-02-16T06:33:38.058Z,100.00
2019-02-16T06:34:38.075Z,116.00
2019-02-16T06:35:38.129Z,132.00
2019-02-16T06:36:38.048Z,148.00
2019-02-16T06:37:38.236Z,168.00
2019-02-16T06:38:38.042Z,188.00
2019-02-16T06:39:38.028Z,212.00
2019-02-16T06:40:37.997Z,232.00
2019-02-16T06:41:38.115Z,260.00
2019-02-16T06:42:38.032Z,284.00
2019-02-16T06:43:38.172Z,308.00
2019-02-16T06:44:37.968Z,340.00
2019-02-16T06:45:38.089Z,368.00
2019-02-16T06:46:37.952Z,396.00
2019-02-16T06:47:38.017Z,428.00
2019-02-16T06:48:37.926Z,460.00
2019-02-16T06:49:39.121Z,492.00
2019-02-16T06:50:37.900Z,528.00
2019-02-16T06:51:38.073Z,560.00
2019-02-16T06:52:37.871Z,596.00
2019-02-16T06:53:37.938Z,628.00
2019-02-16T06:54:37.893Z,668.00
2019-02-16T06:55:38.092Z,704.00
2019-02-16T06:56:37.894Z,740.00
2019-02-16T06:57:37.948Z,776.00
2019-02-16T06:58:37.894Z,812.00
2019-02-16T06:59:37.898Z,848.00
2019-02-16T07:00:37.849Z,884.00
2019-02-16T07:01:37.962Z,920.00
2019-02-16T07:02:37.782Z,956.00
2019-02-16T07:03:37.804Z,996.00
2019-02-16T07:04:37.772Z,1028.00
2019-02-16T07:05:37.834Z,1064.00
2019-02-16T07:06:38.024Z,1100.00
2019-02-16T07:07:37.848Z,1136.00
2019-02-16T07:08:37.721Z,1172.00
2019-02-16T07:09:37.766Z,1208.00
2019-02-16T07:10:37.757Z,1240.00
2019-02-16T07:11:37.886Z,1272.00
2019-02-16T07:12:37.683Z,1308.00
2019-02-16T07:13:37.795Z,1340.00
2019-02-16T07:14:37.654Z,1372.00
2019-02-16T07:15:37.634Z,1404.00
2019-02-16T07:16:37.780Z,1440.00
2019-02-16T07:17:39.411Z,1468.00
2019-02-16T07:18:37.686Z,1500.00
2019-02-16T07:19:37.766Z,1524.00
2019-02-16T07:20:37.591Z,1556.00
2019-02-16T07:21:38.399Z,1588.00
2019-02-16T07:22:37.592Z,1612.00
2019-02-16T07:23:37.764Z,1640.00
2019-02-16T07:24:37.600Z,1668.00
2019-02-16T07:25:38.684Z,1692.00
2019-02-16T07:26:37.670Z,1720.00
2019-02-16T07:27:37.583Z,1748.00
2019-02-16T07:28:37.575Z,1772.00
2019-02-16T07:29:37.585Z,1792.00
2019-02-16T07:30:37.522Z,1816.00
2019-02-16T07:31:37.710Z,1844.00
2019-02-16T07:32:37.536Z,1860.00
2019-02-16T07:33:37.500Z,1884.00
2019-02-16T07:34:37.448Z,1908.00
2019-02-16T07:35:37.618Z,1928.00
2019-02-16T07:36:37.649Z,1948.00
2019-02-16T07:37:37.547Z,1964.00
2019-02-16T07:38:37.460Z,1988.00
2019-02-16T07:39:37.374Z,2008.00
2019-02-16T07:40:38.401Z,2028.00
2019-02-16T07:41:37.508Z,2048.00
2019-02-16T07:42:37.405Z,2072.00
2019-02-16T07:43:38.268Z,2092.00
2019-02-16T07:44:37.445Z,2112.00
2019-02-16T07:45:37.360Z,2128.00
2019-02-16T07:46:37.632Z,2148.00
2019-02-16T07:47:37.358Z,2164.00
2019-02-16T07:48:38.430Z,2180.00
2019-02-16T07:49:37.307Z,2196.00
2019-02-16T07:50:37.402Z,2212.00
2019-02-16T07:51:37.373Z,2228.00
2019-02-16T07:52:38.340Z,2240.00
2019-02-16T07:53:37.315Z,2264.00
2019-02-16T07:54:37.336Z,2280.00
2019-02-16T07:55:37.235Z,2292.00
2019-02-16T07:56:37.466Z,2304.00
2019-02-16T07:57:37.221Z,2316.00
2019-02-16T07:58:37.246Z,2332.00
2019-02-16T07:59:37.236Z,2340.00
2019-02-16T08:00:37.279Z,2360.00
2019-02-16T08:01:37.194Z,2372.00
2019-02-16T08:02:37.173Z,2384.00
2019-02-16T08:03:37.249Z,2396.00
2019-02-16T08:04:37.291Z,2408.00
2019-02-16T08:05:37.140Z,2420.00
2019-02-16T08:06:37.342Z,2432.00
2019-02-16T08:07:37.119Z,2444.00
2019-02-16T08:08:37.209Z,2460.00
2019-02-16T08:09:37.112Z,2468.00
2019-02-16T08:10:37.258Z,2480.00
2019-02-16T08:11:37.182Z,2488.00
2019-02-16T08:12:37.153Z,2504.00
2019-02-16T08:13:37.114Z,2512.00
2019-02-16T08:14:37.102Z,2524.00
2019-02-16T08:15:37.043Z,2536.00
2019-02-16T08:16:37.131Z,2544.00
2019-02-16T08:17:37.019Z,2548.00
2019-02-16T08:18:37.076Z,2556.00
2019-02-16T08:19:36.994Z,2568.00
2019-02-16T08:20:36.965Z,2580.00
2019-02-16T08:21:37.005Z,2588.00
2019-02-16T08:22:37.019Z,2596.00
2019-02-16T08:23:40.371Z,2604.00
2019-02-16T08:24:38.687Z,2608.00
2019-02-16T08:25:36.938Z,2624.00
2019-02-16T08:26:37.078Z,2636.00
2019-02-16T08:27:37.050Z,2644.00
2019-02-16T08:28:36.879Z,2652.00
2019-02-16T08:29:36.947Z,2668.00
2019-02-16T08:30:36.947Z,2676.00
2019-02-16T08:31:36.954Z,2684.00
2019-02-16T08:32:36.941Z,2692.00
2019-02-16T08:33:37.135Z,2704.00
2019-02-16T08:34:36.875Z,2716.00
2019-02-16T08:35:37.907Z,2724.00
2019-02-16T08:36:36.976Z,2736.00
2019-02-16T08:37:37.945Z,2740.00
2019-02-16T08:38:36.782Z,2744.00
2019-02-16T08:39:36.910Z,2752.00
2019-02-16T08:40:36.776Z,2756.00
2019-02-16T08:41:36.929Z,2776.00
2019-02-16T08:42:36.827Z,2780.00
2019-02-16T08:43:38.467Z,2788.00
2019-02-16T08:44:37.727Z,2800.00
2019-02-16T08:45:36.949Z,2804.00
2019-02-16T08:46:36.942Z,2820.00
2019-02-16T08:47:36.857Z,2824.00
2019-02-16T08:48:36.765Z,2832.00
2019-02-16T08:49:36.733Z,2844.00
2019-02-16T08:50:36.707Z,2852.00
2019-02-16T08:51:36.864Z,2872.00
2019-02-16T08:52:36.655Z,2868.00
2019-02-16T08:53:36.811Z,2876.00
2019-02-16T08:54:36.689Z,2884.00
2019-02-16T08:55:36.625Z,2888.00
2019-02-16T08:56:36.911Z,2896.00
2019-02-16T08:57:36.640Z,2896.00
2019-02-16T08:58:36.645Z,2900.00
2019-02-16T08:59:36.652Z,2904.00
2019-02-16T09:00:36.655Z,2912.00
2019-02-16T09:01:36.701Z,2920.00
2019-02-16T09:02:36.682Z,2924.00
2019-02-16T09:03:36.553Z,2932.00
2019-02-16T09:04:36.696Z,2940.00
2019-02-16T09:05:36.562Z,2952.00
2019-02-16T09:06:36.690Z,2952.00
2019-02-16T09:07:36.562Z,2972.00
2019-02-16T09:08:36.615Z,2976.00
2019-02-16T09:09:36.508Z,2988.00
2019-02-16T09:10:36.540Z,3000.00
2019-02-16T09:11:36.516Z,3004.00
2019-02-16T09:12:36.648Z,3016.00
2019-02-16T09:13:36.504Z,3020.00
2019-02-16T09:14:36.553Z,3028.00
2019-02-16T09:15:36.423Z,3024.00
2019-02-16T09:16:38.377Z,3036.00
2019-02-16T09:17:36.397Z,3044.00
2019-02-16T09:18:36.577Z,3052.00
2019-02-16T09:19:36.373Z,3064.00
2019-02-16T09:20:36.483Z,3068.00
2019-02-16T09:21:36.382Z,3076.00
2019-02-16T09:22:36.428Z,3084.00
2019-02-16T09:23:36.334Z,3092.00
2019-02-16T09:24:36.413Z,3108.00
2019-02-16T09:25:36.430Z,3116.00
2019-02-16T09:26:36.393Z,3132.00
2019-02-16T09:27:36.395Z,3140.00
2019-02-16T09:28:36.366Z,3148.00
2019-02-16T09:29:36.289Z,3148.00
2019-02-16T09:30:36.338Z,3152.00
2019-02-16T09:31:36.274Z,3168.00
2019-02-16T09:32:36.335Z,3172.00
2019-02-16T09:33:36.241Z,3180.00
2019-02-16T09:34:36.363Z,3184.00
2019-02-16T09:35:36.251Z,3204.00
2019-02-16T09:36:36.246Z,3208.00
2019-02-16T09:37:36.202Z,3220.00
2019-02-16T09:38:36.215Z,3232.00
2019-02-16T09:39:36.160Z,3244.00
2019-02-16T09:40:36.219Z,3236.00
2019-02-16T09:41:36.306Z,3240.00
2019-02-16T09:42:36.175Z,3252.00
2019-02-16T09:43:36.215Z,3256.00
2019-02-16T09:44:36.175Z,3268.00
2019-02-16T09:45:36.134Z,3268.00
2019-02-16T09:46:36.166Z,3276.00
2019-02-16T09:47:37.219Z,3260.00
2019-02-16T09:48:38.208Z,3292.00
2019-02-16T09:49:36.157Z,3300.00
2019-02-16T09:50:36.060Z,3308.00
2019-02-16T09:51:36.133Z,3316.00
2019-02-16T09:52:37.094Z,3324.00
2019-02-16T09:53:36.058Z,3332.00
2019-02-16T09:54:36.032Z,3336.00
2019-02-16T09:55:36.115Z,3340.00
2019-02-16T09:56:36.067Z,3352.00
2019-02-16T09:57:36.141Z,3364.00
2019-02-16T09:58:35.954Z,3368.00
2019-02-16T09:59:37.052Z,3384.00
2019-02-16T10:00:35.930Z,3388.00
2019-02-16T10:01:36.963Z,3388.00
2019-02-16T10:02:35.951Z,3392.00
2019-02-16T10:03:36.983Z,3400.00
2019-02-16T10:04:35.902Z,3404.00
2019-02-16T10:05:35.877Z,3400.00
2019-02-16T10:06:35.918Z,3404.00
2019-02-16T10:07:36.896Z,3404.00
2019-02-16T10:08:35.848Z,3408.00
2019-02-16T10:09:36.103Z,3408.00
2019-02-16T10:10:35.889Z,3408.00
2019-02-16T10:11:35.854Z,3412.00
2019-02-16T10:12:35.864Z,3420.00
2019-02-16T10:13:37.065Z,3420.00
2019-02-16T10:14:35.814Z,3420.00
2019-02-16T10:15:35.915Z,3424.00
2019-02-16T10:16:35.830Z,3428.00
2019-02-16T10:17:35.856Z,3432.00
2019-02-16T10:18:35.747Z,3432.00
2019-02-16T10:19:35.943Z,3432.00
2019-02-16T10:20:35.781Z,3436.00
2019-02-16T10:21:35.910Z,3436.00
2019-02-16T10:22:35.748Z,3440.00
2019-02-16T10:23:35.730Z,3444.00
2019-02-16T10:24:35.763Z,3452.00
2019-02-16T10:25:35.776Z,3460.00
2019-02-16T10:26:35.782Z,3456.00
2019-02-16T10:27:35.895Z,3460.00
2019-02-16T10:28:35.647Z,3476.00
2019-02-16T10:29:35.686Z,3496.00
2019-02-16T10:30:35.622Z,3508.00
2019-02-16T10:31:35.976Z,3524.00
2019-02-16T10:32:35.602Z,3536.00
2019-02-16T10:33:35.766Z,3548.00
2019-02-16T10:34:35.597Z,3552.00
2019-02-16T10:35:36.764Z,3556.00
2019-02-16T10:36:35.732Z,3564.00
2019-02-16T10:37:35.616Z,3580.00
2019-02-16T10:38:35.784Z,3584.00
2019-02-16T10:39:35.516Z,3592.00
2019-02-16T10:40:35.802Z,3600.00
2019-02-16T10:41:35.523Z,3612.00
2019-02-16T10:42:35.677Z,3612.00
2019-02-16T10:43:35.482Z,3636.00
2019-02-16T10:44:35.623Z,3652.00
2019-02-16T10:45:35.445Z,3680.00
2019-02-16T10:46:35.480Z,3688.00
2019-02-16T10:47:35.472Z,3704.00
2019-02-16T10:48:35.644Z,3708.00
2019-02-16T10:49:35.433Z,3724.00
2019-02-16T10:50:35.541Z,3736.00
2019-02-16T10:51:35.540Z,3736.00
2019-02-16T10:52:35.445Z,3740.00
2019-02-16T10:53:35.381Z,3756.00
2019-02-16T10:54:35.584Z,3768.00
2019-02-16T10:55:35.363Z,3760.00
2019-02-16T10:56:35.563Z,3752.00
2019-02-16T10:57:35.338Z,3748.00
2019-02-16T10:58:35.334Z,3784.00
2019-02-16T10:59:35.305Z,3828.00
2019-02-16T11:00:35.521Z,3836.00
2019-02-16T11:01:35.327Z,3844.00
2019-02-16T11:02:36.285Z,3856.00
2019-02-16T11:03:35.315Z,3864.00
2019-02-16T11:04:38.151Z,3872.00
2019-02-16T11:05:35.431Z,3884.00
2019-02-16T11:06:35.247Z,3900.00
2019-02-16T11:07:35.362Z,3912.00
2019-02-16T11:08:35.240Z,3912.00
2019-02-16T11:09:35.376Z,3892.00
2019-02-16T11:10:35.189Z,3904.00
2019-02-16T11:11:35.400Z,3940.00
2019-02-16T11:12:35.192Z,3952.00
2019-02-16T11:13:35.359Z,3952.00
2019-02-16T11:14:35.144Z,3940.00
2019-02-16T11:15:35.346Z,3940.00
2019-02-16T11:16:35.119Z,3956.00
2019-02-16T11:17:35.321Z,3988.00
2019-02-16T11:18:35.154Z,3992.00
2019-02-16T11:19:35.218Z,3988.00
2019-02-16T11:20:35.104Z,3964.00
2019-02-16T11:21:35.131Z,4008.00
2019-02-16T11:22:35.070Z,4020.00
2019-02-16T11:23:35.249Z,4040.00
2019-02-16T11:24:36.216Z,4052.00
2019-02-16T11:25:35.171Z,4068.00
2019-02-16T11:26:35.065Z,4076.00
2019-02-16T11:27:35.026Z,4080.00
2019-02-16T11:28:35.012Z,4092.00
2019-02-16T11:29:35.187Z,4180.00
2019-02-16T11:30:34.993Z,4252.00
2019-02-16T11:31:37.216Z,4252.00
2019-02-16T11:32:34.965Z,4296.00
2019-02-16T11:33:34.966Z,4344.00
2019-02-16T11:34:34.930Z,4392.00
2019-02-16T11:35:35.138Z,4428.00
2019-02-16T11:36:34.986Z,4460.00
2019-02-16T11:37:35.031Z,4468.00
2019-02-16T11:38:34.900Z,4480.00
2019-02-16T11:39:34.879Z,4460.00
2019-02-16T11:40:35.074Z,4456.00
2019-02-16T11:41:34.898Z,4500.00
2019-02-16T11:42:35.007Z,4520.00
2019-02-16T11:43:34.850Z,4524.00
2019-02-16T11:44:34.993Z,4532.00
2019-02-16T11:45:34.814Z,4516.00
2019-02-16T11:46:34.974Z,4532.00
2019-02-16T11:47:34.830Z,4532.00
2019-02-16T11:48:34.933Z,4520.00
2019-02-16T11:49:34.801Z,4512.00
2019-02-16T11:50:34.933Z,4492.00
2019-02-16T11:51:34.804Z,4504.00
2019-02-16T11:52:34.944Z,4508.00
2019-02-16T11:53:34.733Z,4516.00
2019-02-16T11:54:34.871Z,4520.00
2019-02-16T11:55:34.732Z,4536.00
2019-02-16T11:56:34.742Z,4544.00
2019-02-16T11:57:34.733Z,4544.00
2019-02-16T11:58:34.885Z,4556.00
2019-02-16T11:59:34.663Z,4576.00
2019-02-16T12:00:34.899Z,4576.00
2019-02-16T12:01:34.698Z,4588.00
2019-02-16T12:02:39.637Z,4596.00
2019-02-16T12:03:35.632Z,4632.00
2019-02-16T12:04:34.826Z,4656.00
2019-02-16T12:05:34.618Z,4664.00
2019-02-16T12:06:34.823Z,4672.00
2019-02-16T12:07:34.607Z,4676.00
2019-02-16T12:08:34.577Z,4656.00
2019-02-16T12:09:36.204Z,4636.00
2019-02-16T12:10:34.765Z,4644.00
2019-02-16T12:11:34.589Z,4660.00
2019-02-16T12:12:34.651Z,4672.00
2019-02-16T12:13:34.535Z,4676.00
2019-02-16T12:14:34.525Z,4676.00
2019-02-16T12:15:34.519Z,4664.00
2019-02-16T12:16:34.671Z,4660.00
2019-02-16T12:17:34.491Z,4668.00
2019-02-16T12:18:34.611Z,4692.00
2019-02-16T12:19:34.480Z,4720.00
2019-02-16T12:20:34.464Z,4692.00
2019-02-16T12:21:34.575Z,4680.00
2019-02-16T12:22:34.442Z,4700.00
2019-02-16T12:23:34.541Z,4704.00
2019-02-16T12:24:34.447Z,4712.00
2019-02-16T12:25:34.545Z,4724.00
2019-02-16T12:26:34.468Z,4740.00
2019-02-16T12:27:34.565Z,4772.00
2019-02-16T12:28:34.381Z,4804.00
2019-02-16T12:29:34.466Z,4820.00
2019-02-16T12:30:34.356Z,4848.00
2019-02-16T12:31:34.562Z,4872.00
2019-02-16T12:32:34.325Z,4904.00
2019-02-16T12:33:34.517Z,4952.00
2019-02-16T12:34:34.313Z,4956.00
2019-02-16T12:35:34.429Z,4952.00
2019-02-16T12:36:34.329Z,4960.00
2019-02-16T12:37:34.416Z,4960.00
2019-02-16T12:38:34.893Z,5020.00
2019-02-16T12:39:34.446Z,5040.00
2019-02-16T12:40:34.255Z,5052.00
2019-02-16T12:41:34.415Z,5056.00
2019-02-16T12:42:34.217Z,5072.00